Decoded Metar for LKTB (TURANY in CZECH REPUBLIC) (IATA:BRQ) | Meteo·Mobile Aviation Weather
aviador You're here:

LKTB Decoded Metar

TURANY in CZECH REPUBLIC
Report Time2018-11-19 05:00:00
UTC Time2018-11-19 05:11:57
Flight Rules mvfr MVFR
Wind050° at 07 kt
W.Decomp.*RWY 09: 5.1 kt HW 4.8 kt LCW
RWY 10: 4.2 kt HW 5.6 kt LCW
W.Rank050° ranks 9
Current wind is above 050° avg. (5.8)
Visibility9999 m
Phenomena:Light Snow
Clouds:Overcast 026 Hf
Expected CloudBase > 1,600 ft AGL from Temp-Dew spread
Ceiling2,600 ft
Temp00°C (ISA -13)
Dew Point-4°C (75% RH)
AAT-5.0°C
QNH1016 hPa
Density Alt-863 ft
Elevation807 ft
Report Wrong Elevation
Raw Report
METAR LKTB 190500Z 05007KT 020V080 9999 -SN OVC026 00/M04 Q1016
NOSIG=

Extra information for LKTB:More info

Metar Taf Metar & Taf Last 4 Metars F.Rules Stats Wind Profile Meteogram Temp Stats Airport Information Weather charts Add Link Nearby VenuesMetar ALERT Operation Metar Decoded Social comments